sensor_id;sensor_type;location;lat;lon;timestamp;P1;durP1;ratioP1;P2;durP2;ratioP2
15049;SDS011;7622;42.724;23.250;2023-04-15T00:02:04;3.67;;;3.37;;
15049;SDS011;7622;42.724;23.250;2023-04-15T00:04:42;5.17;;;3.63;;
15049;SDS011;7622;42.724;23.250;2023-04-15T00:07:09;8.07;;;5.03;;
15049;SDS011;7622;42.724;23.250;2023-04-15T00:09:37;4.93;;;4.27;;
15049;SDS011;7622;42.724;23.250;2023-04-15T00:12:04;5.97;;;4.30;;
15049;SDS011;7622;42.724;23.250;2023-04-15T00:14:32;7.10;;;3.87;;
15049;SDS011;7622;42.724;23.250;2023-04-15T00:16:59;5.23;;;3.70;;
15049;SDS011;7622;42.724;23.250;2023-04-15T00:19:26;5.73;;;3.73;;
15049;SDS011;7622;42.724;23.250;2023-04-15T00:21:53;4.13;;;3.53;;
15049;SDS011;7622;42.724;23.250;2023-04-15T00:24:20;3.87;;;3.37;;
15049;SDS011;7622;42.724;23.250;2023-04-15T00:26:48;3.53;;;3.07;;
15049;SDS011;7622;42.724;23.250;2023-04-15T00:29:15;4.33;;;3.40;;
15049;SDS011;7622;42.724;23.250;2023-04-15T00:31:42;5.10;;;3.23;;
15049;SDS011;7622;42.724;23.250;2023-04-15T00:34:09;5.57;;;3.23;;
15049;SDS011;7622;42.724;23.250;2023-04-15T00:36:35;3.93;;;3.17;;
15049;SDS011;7622;42.724;23.250;2023-04-15T00:39:02;3.70;;;3.40;;
15049;SDS011;7622;42.724;23.250;2023-04-15T00:41:29;3.80;;;3.07;;
15049;SDS011;7622;42.724;23.250;2023-04-15T00:43:57;5.67;;;3.73;;
15049;SDS011;7622;42.724;23.250;2023-04-15T00:46:24;5.00;;;3.43;;
15049;SDS011;7622;42.724;23.250;2023-04-15T00:48:53;6.93;;;4.20;;
15049;SDS011;7622;42.724;23.250;2023-04-15T00:51:20;5.20;;;4.57;;
15049;SDS011;7622;42.724;23.250;2023-04-15T00:53:47;5.37;;;4.30;;
15049;SDS011;7622;42.724;23.250;2023-04-15T00:56:14;7.63;;;4.10;;
15049;SDS011;7622;42.724;23.250;2023-04-15T00:58:41;6.67;;;4.40;;
15049;SDS011;7622;42.724;23.250;2023-04-15T01:01:09;4.57;;;4.17;;
15049;SDS011;7622;42.724;23.250;2023-04-15T01:03:36;9.40;;;4.73;;
15049;SDS011;7622;42.724;23.250;2023-04-15T01:06:02;4.83;;;3.93;;
15049;SDS011;7622;42.724;23.250;2023-04-15T01:08:29;6.13;;;4.17;;
15049;SDS011;7622;42.724;23.250;2023-04-15T01:10:57;4.90;;;4.40;;
15049;SDS011;7622;42.724;23.250;2023-04-15T01:13:27;5.03;;;4.13;;
15049;SDS011;7622;42.724;23.250;2023-04-15T01:15:55;6.53;;;4.73;;
15049;SDS011;7622;42.724;23.250;2023-04-15T01:18:24;7.10;;;4.87;;
15049;SDS011;7622;42.724;23.250;2023-04-15T01:20:51;7.97;;;5.17;;
15049;SDS011;7622;42.724;23.250;2023-04-15T01:23:18;7.43;;;4.73;;
15049;SDS011;7622;42.724;23.250;2023-04-15T01:25:47;5.43;;;4.93;;
15049;SDS011;7622;42.724;23.250;2023-04-15T01:28:15;8.97;;;5.07;;
15049;SDS011;7622;42.724;23.250;2023-04-15T01:30:42;5.57;;;4.97;;
15049;SDS011;7622;42.724;23.250;2023-04-15T01:33:08;6.03;;;5.50;;
15049;SDS011;7622;42.724;23.250;2023-04-15T01:35:35;7.77;;;5.77;;
15049;SDS011;7622;42.724;23.250;2023-04-15T01:38:04;10.27;;;6.77;;
15049;SDS011;7622;42.724;23.250;2023-04-15T01:40:31;8.37;;;6.10;;
15049;SDS011;7622;42.724;23.250;2023-04-15T01:43:00;9.30;;;6.30;;
15049;SDS011;7622;42.724;23.250;2023-04-15T01:45:28;8.93;;;6.23;;
15049;SDS011;7622;42.724;23.250;2023-04-15T01:47:55;10.50;;;6.37;;
15049;SDS011;7622;42.724;23.250;2023-04-15T01:50:21;12.07;;;7.33;;
15049;SDS011;7622;42.724;23.250;2023-04-15T01:52:50;9.47;;;6.47;;
15049;SDS011;7622;42.724;23.250;2023-04-15T01:55:17;7.70;;;6.07;;
15049;SDS011;7622;42.724;23.250;2023-04-15T01:57:43;9.93;;;7.30;;
15049;SDS011;7622;42.724;23.250;2023-04-15T02:00:12;8.13;;;6.97;;
15049;SDS011;7622;42.724;23.250;2023-04-15T02:02:39;7.23;;;6.33;;
15049;SDS011;7622;42.724;23.250;2023-04-15T02:05:06;8.87;;;6.63;;
15049;SDS011;7622;42.724;23.250;2023-04-15T02:07:33;10.67;;;6.70;;
15049;SDS011;7622;42.724;23.250;2023-04-15T02:10:00;8.50;;;6.87;;
15049;SDS011;7622;42.724;23.250;2023-04-15T02:12:28;7.30;;;6.57;;
15049;SDS011;7622;42.724;23.250;2023-04-15T02:14:54;7.40;;;5.97;;
15049;SDS011;7622;42.724;23.250;2023-04-15T02:17:23;7.43;;;6.13;;
15049;SDS011;7622;42.724;23.250;2023-04-15T02:19:49;8.00;;;6.47;;
15049;SDS011;7622;42.724;23.250;2023-04-15T02:22:16;7.83;;;7.07;;
15049;SDS011;7622;42.724;23.250;2023-04-15T02:24:43;10.13;;;6.47;;
15049;SDS011;7622;42.724;23.250;2023-04-15T02:27:14;8.43;;;6.13;;
15049;SDS011;7622;42.724;23.250;2023-04-15T02:29:42;9.37;;;6.87;;
15049;SDS011;7622;42.724;23.250;2023-04-15T02:32:09;7.97;;;6.80;;
15049;SDS011;7622;42.724;23.250;2023-04-15T02:34:38;12.33;;;7.47;;
15049;SDS011;7622;42.724;23.250;2023-04-15T02:37:07;10.17;;;6.93;;
15049;SDS011;7622;42.724;23.250;2023-04-15T02:39:33;10.27;;;7.63;;
15049;SDS011;7622;42.724;23.250;2023-04-15T02:42:00;9.53;;;6.93;;
15049;SDS011;7622;42.724;23.250;2023-04-15T02:44:27;9.10;;;5.90;;
15049;SDS011;7622;42.724;23.250;2023-04-15T02:46:55;6.33;;;5.27;;
15049;SDS011;7622;42.724;23.250;2023-04-15T02:49:22;6.63;;;5.23;;
15049;SDS011;7622;42.724;23.250;2023-04-15T02:51:51;5.87;;;5.07;;
15049;SDS011;7622;42.724;23.250;2023-04-15T02:54:18;5.17;;;4.67;;
15049;SDS011;7622;42.724;23.250;2023-04-15T02:56:46;9.70;;;5.00;;
15049;SDS011;7622;42.724;23.250;2023-04-15T02:59:14;6.60;;;4.97;;
15049;SDS011;7622;42.724;23.250;2023-04-15T03:01:40;7.47;;;5.60;;
15049;SDS011;7622;42.724;23.250;2023-04-15T03:04:07;7.60;;;5.67;;
15049;SDS011;7622;42.724;23.250;2023-04-15T03:06:34;6.07;;;5.13;;
15049;SDS011;7622;42.724;23.250;2023-04-15T03:09:02;10.93;;;5.17;;
15049;SDS011;7622;42.724;23.250;2023-04-15T03:11:29;6.13;;;4.80;;
15049;SDS011;7622;42.724;23.250;2023-04-15T03:13:56;6.80;;;5.70;;
15049;SDS011;7622;42.724;23.250;2023-04-15T03:16:23;8.37;;;5.10;;
15049;SDS011;7622;42.724;23.250;2023-04-15T03:18:50;5.87;;;5.20;;
15049;SDS011;7622;42.724;23.250;2023-04-15T03:21:17;7.93;;;5.33;;
15049;SDS011;7622;42.724;23.250;2023-04-15T03:23:44;8.53;;;5.40;;
15049;SDS011;7622;42.724;23.250;2023-04-15T03:26:23;6.77;;;5.23;;
15049;SDS011;7622;42.724;23.250;2023-04-15T03:28:52;6.50;;;5.90;;
15049;SDS011;7622;42.724;23.250;2023-04-15T03:31:19;10.50;;;6.03;;
15049;SDS011;7622;42.724;23.250;2023-04-15T03:33:45;7.23;;;5.93;;
15049;SDS011;7622;42.724;23.250;2023-04-15T03:36:12;8.93;;;6.83;;
15049;SDS011;7622;42.724;23.250;2023-04-15T03:38:39;9.03;;;6.43;;
15049;SDS011;7622;42.724;23.250;2023-04-15T03:41:06;7.27;;;5.87;;
15049;SDS011;7622;42.724;23.250;2023-04-15T03:43:34;8.03;;;6.20;;
15049;SDS011;7622;42.724;23.250;2023-04-15T03:46:01;7.60;;;5.53;;
15049;SDS011;7622;42.724;23.250;2023-04-15T03:48:28;7.77;;;6.10;;
15049;SDS011;7622;42.724;23.250;2023-04-15T03:50:55;7.67;;;5.57;;
15049;SDS011;7622;42.724;23.250;2023-04-15T03:53:22;7.50;;;6.67;;
15049;SDS011;7622;42.724;23.250;2023-04-15T03:55:48;9.93;;;8.97;;
15049;SDS011;7622;42.724;23.250;2023-04-15T03:58:15;13.57;;;10.27;;
15049;SDS011;7622;42.724;23.250;2023-04-15T04:00:44;12.40;;;9.13;;
15049;SDS011;7622;42.724;23.250;2023-04-15T04:03:11;12.93;;;8.77;;
15049;SDS011;7622;42.724;23.250;2023-04-15T04:05:37;8.73;;;6.17;;
15049;SDS011;7622;42.724;23.250;2023-04-15T04:08:05;10.63;;;6.97;;
15049;SDS011;7622;42.724;23.250;2023-04-15T04:10:32;7.73;;;6.83;;
15049;SDS011;7622;42.724;23.250;2023-04-15T04:12:59;8.60;;;6.97;;
15049;SDS011;7622;42.724;23.250;2023-04-15T04:15:26;8.13;;;6.47;;
15049;SDS011;7622;42.724;23.250;2023-04-15T04:17:54;7.60;;;6.07;;
15049;SDS011;7622;42.724;23.250;2023-04-15T04:20:21;6.73;;;4.93;;
15049;SDS011;7622;42.724;23.250;2023-04-15T04:22:48;5.53;;;5.03;;
15049;SDS011;7622;42.724;23.250;2023-04-15T04:25:15;6.50;;;5.90;;
15049;SDS011;7622;42.724;23.250;2023-04-15T04:27:42;6.03;;;5.43;;
15049;SDS011;7622;42.724;23.250;2023-04-15T04:30:09;8.47;;;5.60;;
15049;SDS011;7622;42.724;23.250;2023-04-15T04:32:37;8.73;;;5.87;;
15049;SDS011;7622;42.724;23.250;2023-04-15T04:35:05;6.27;;;5.10;;
15049;SDS011;7622;42.724;23.250;2023-04-15T04:37:32;5.27;;;4.77;;
15049;SDS011;7622;42.724;23.250;2023-04-15T04:39:59;6.83;;;5.60;;
15049;SDS011;7622;42.724;23.250;2023-04-15T04:42:26;6.37;;;5.27;;
15049;SDS011;7622;42.724;23.250;2023-04-15T04:44:53;9.77;;;6.40;;
15049;SDS011;7622;42.724;23.250;2023-04-15T04:47:19;6.67;;;6.00;;
15049;SDS011;7622;42.724;23.250;2023-04-15T04:49:46;6.37;;;5.77;;
15049;SDS011;7622;42.724;23.250;2023-04-15T04:52:14;6.63;;;5.97;;
15049;SDS011;7622;42.724;23.250;2023-04-15T04:54:41;8.90;;;5.80;;
15049;SDS011;7622;42.724;23.250;2023-04-15T04:57:08;8.07;;;6.33;;
15049;SDS011;7622;42.724;23.250;2023-04-15T04:59:35;6.87;;;6.03;;
15049;SDS011;7622;42.724;23.250;2023-04-15T05:02:02;8.83;;;6.60;;
15049;SDS011;7622;42.724;23.250;2023-04-15T05:04:29;8.03;;;6.07;;
15049;SDS011;7622;42.724;23.250;2023-04-15T05:06:56;8.50;;;5.60;;
15049;SDS011;7622;42.724;23.250;2023-04-15T05:09:24;7.87;;;5.40;;
15049;SDS011;7622;42.724;23.250;2023-04-15T05:11:51;7.90;;;5.40;;
15049;SDS011;7622;42.724;23.250;2023-04-15T05:14:18;7.27;;;5.43;;
15049;SDS011;7622;42.724;23.250;2023-04-15T05:16:45;6.50;;;5.57;;
15049;SDS011;7622;42.724;23.250;2023-04-15T05:19:11;7.30;;;4.93;;
15049;SDS011;7622;42.724;23.250;2023-04-15T05:21:38;5.37;;;4.63;;
15049;SDS011;7622;42.724;23.250;2023-04-15T05:24:05;8.27;;;4.70;;
15049;SDS011;7622;42.724;23.250;2023-04-15T05:26:33;4.47;;;3.63;;
15049;SDS011;7622;42.724;23.250;2023-04-15T05:29:00;6.10;;;4.37;;
15049;SDS011;7622;42.724;23.250;2023-04-15T05:31:27;6.07;;;4.20;;
15049;SDS011;7622;42.724;23.250;2023-04-15T05:33:53;4.73;;;3.90;;
15049;SDS011;7622;42.724;23.250;2023-04-15T05:36:20;6.03;;;4.53;;
15049;SDS011;7622;42.724;23.250;2023-04-15T05:38:47;7.80;;;4.80;;
15049;SDS011;7622;42.724;23.250;2023-04-15T05:41:14;6.43;;;4.10;;
15049;SDS011;7622;42.724;23.250;2023-04-15T05:43:42;37.83;;;5.93;;
15049;SDS011;7622;42.724;23.250;2023-04-15T05:46:09;4.80;;;4.10;;
15049;SDS011;7622;42.724;23.250;2023-04-15T05:48:36;23.07;;;15.00;;
15049;SDS011;7622;42.724;23.250;2023-04-15T05:51:03;16.73;;;10.43;;
15049;SDS011;7622;42.724;23.250;2023-04-15T05:53:30;26.23;;;16.67;;
15049;SDS011;7622;42.724;23.250;2023-04-15T05:55:57;12.53;;;5.33;;
15049;SDS011;7622;42.724;23.250;2023-04-15T05:58:24;7.90;;;4.03;;
15049;SDS011;7622;42.724;23.250;2023-04-15T06:00:52;5.67;;;3.70;;
15049;SDS011;7622;42.724;23.250;2023-04-15T06:03:19;3.77;;;3.37;;
15049;SDS011;7622;42.724;23.250;2023-04-15T06:05:47;6.53;;;3.83;;
15049;SDS011;7622;42.724;23.250;2023-04-15T06:08:14;7.70;;;5.37;;
15049;SDS011;7622;42.724;23.250;2023-04-15T06:10:41;12.97;;;10.60;;
15049;SDS011;7622;42.724;23.250;2023-04-15T06:13:08;6.53;;;5.63;;
15049;SDS011;7622;42.724;23.250;2023-04-15T06:15:34;8.30;;;4.13;;
15049;SDS011;7622;42.724;23.250;2023-04-15T06:18:03;5.27;;;3.53;;
15049;SDS011;7622;42.724;23.250;2023-04-15T06:20:29;5.53;;;3.70;;
15049;SDS011;7622;42.724;23.250;2023-04-15T06:22:56;8.93;;;4.63;;
15049;SDS011;7622;42.724;23.250;2023-04-15T06:25:23;7.33;;;5.47;;
15049;SDS011;7622;42.724;23.250;2023-04-15T06:27:50;7.53;;;5.07;;
15049;SDS011;7622;42.724;23.250;2023-04-15T06:30:17;4.67;;;4.17;;
15049;SDS011;7622;42.724;23.250;2023-04-15T06:32:43;3.23;;;2.93;;
15049;SDS011;7622;42.724;23.250;2023-04-15T06:35:12;4.33;;;3.07;;
15049;SDS011;7622;42.724;23.250;2023-04-15T06:37:38;3.67;;;3.37;;
15049;SDS011;7622;42.724;23.250;2023-04-15T06:40:06;6.33;;;3.13;;
15049;SDS011;7622;42.724;23.250;2023-04-15T06:42:34;4.57;;;3.20;;
15049;SDS011;7622;42.724;23.250;2023-04-15T06:45:01;4.37;;;3.37;;
15049;SDS011;7622;42.724;23.250;2023-04-15T06:47:27;6.97;;;3.33;;
15049;SDS011;7622;42.724;23.250;2023-04-15T06:49:54;5.20;;;4.03;;
15049;SDS011;7622;42.724;23.250;2023-04-15T06:52:22;7.00;;;3.87;;
15049;SDS011;7622;42.724;23.250;2023-04-15T06:54:49;4.90;;;3.53;;
15049;SDS011;7622;42.724;23.250;2023-04-15T06:57:16;4.50;;;4.07;;
15049;SDS011;7622;42.724;23.250;2023-04-15T06:59:42;4.50;;;3.53;;
15049;SDS011;7622;42.724;23.250;2023-04-15T07:02:10;4.97;;;3.47;;
15049;SDS011;7622;42.724;23.250;2023-04-15T07:04:38;8.93;;;4.17;;
15049;SDS011;7622;42.724;23.250;2023-04-15T07:07:05;4.17;;;3.87;;
15049;SDS011;7622;42.724;23.250;2023-04-15T07:09:33;5.13;;;3.57;;
15049;SDS011;7622;42.724;23.250;2023-04-15T07:12:00;4.07;;;3.57;;
15049;SDS011;7622;42.724;23.250;2023-04-15T07:14:27;7.30;;;4.10;;
15049;SDS011;7622;42.724;23.250;2023-04-15T07:16:53;3.90;;;3.43;;
15049;SDS011;7622;42.724;23.250;2023-04-15T07:19:20;3.27;;;2.97;;
15049;SDS011;7622;42.724;23.250;2023-04-15T07:21:48;6.87;;;2.93;;
15049;SDS011;7622;42.724;23.250;2023-04-15T07:24:15;6.07;;;3.30;;
15049;SDS011;7622;42.724;23.250;2023-04-15T07:26:45;6.73;;;3.03;;
15049;SDS011;7622;42.724;23.250;2023-04-15T07:29:12;3.43;;;2.47;;
15049;SDS011;7622;42.724;23.250;2023-04-15T07:31:38;5.30;;;2.93;;
15049;SDS011;7622;42.724;23.250;2023-04-15T07:34:06;5.00;;;2.70;;
15049;SDS011;7622;42.724;23.250;2023-04-15T07:36:33;3.07;;;2.23;;
15049;SDS011;7622;42.724;23.250;2023-04-15T07:38:59;6.50;;;2.67;;
15049;SDS011;7622;42.724;23.250;2023-04-15T07:41:28;5.90;;;2.90;;
15049;SDS011;7622;42.724;23.250;2023-04-15T07:43:56;4.80;;;2.87;;
15049;SDS011;7622;42.724;23.250;2023-04-15T07:46:23;3.30;;;2.17;;
15049;SDS011;7622;42.724;23.250;2023-04-15T07:48:51;6.53;;;3.30;;
15049;SDS011;7622;42.724;23.250;2023-04-15T07:51:18;4.40;;;2.70;;
15049;SDS011;7622;42.724;23.250;2023-04-15T07:53:45;9.27;;;3.03;;
15049;SDS011;7622;42.724;23.250;2023-04-15T07:56:12;2.80;;;2.40;;
15049;SDS011;7622;42.724;23.250;2023-04-15T07:58:39;4.00;;;2.57;;
15049;SDS011;7622;42.724;23.250;2023-04-15T08:01:08;3.70;;;2.67;;
15049;SDS011;7622;42.724;23.250;2023-04-15T08:03:34;2.27;;;1.60;;
15049;SDS011;7622;42.724;23.250;2023-04-15T08:06:01;3.00;;;1.17;;
15049;SDS011;7622;42.724;23.250;2023-04-15T08:08:28;2.77;;;1.10;;
15049;SDS011;7622;42.724;23.250;2023-04-15T08:10:55;2.30;;;0.90;;
15049;SDS011;7622;42.724;23.250;2023-04-15T08:13:22;3.80;;;1.30;;
15049;SDS011;7622;42.724;23.250;2023-04-15T08:15:52;2.27;;;1.60;;
15049;SDS011;7622;42.724;23.250;2023-04-15T08:18:39;1.27;;;1.17;;
15049;SDS011;7622;42.724;23.250;2023-04-15T08:21:06;1.43;;;1.03;;
15049;SDS011;7622;42.724;23.250;2023-04-15T08:23:33;1.63;;;1.17;;
15049;SDS011;7622;42.724;23.250;2023-04-15T08:26:00;1.30;;;1.07;;
15049;SDS011;7622;42.724;23.250;2023-04-15T08:28:27;1.53;;;1.17;;
15049;SDS011;7622;42.724;23.250;2023-04-15T08:30:53;2.77;;;1.27;;
15049;SDS011;7622;42.724;23.250;2023-04-15T08:33:20;2.23;;;1.17;;
15049;SDS011;7622;42.724;23.250;2023-04-15T08:35:48;3.00;;;1.30;;
15049;SDS011;7622;42.724;23.250;2023-04-15T08:38:15;1.30;;;1.20;;
15049;SDS011;7622;42.724;23.250;2023-04-15T08:40:43;3.43;;;1.37;;
15049;SDS011;7622;42.724;23.250;2023-04-15T08:43:12;2.07;;;1.13;;
15049;SDS011;7622;42.724;23.250;2023-04-15T08:45:44;3.63;;;1.30;;
15049;SDS011;7622;42.724;23.250;2023-04-15T08:48:13;4.00;;;1.33;;
15049;SDS011;7622;42.724;23.250;2023-04-15T08:50:41;2.47;;;1.33;;
15049;SDS011;7622;42.724;23.250;2023-04-15T08:53:10;1.10;;;1.00;;
15049;SDS011;7622;42.724;23.250;2023-04-15T08:55:39;1.50;;;1.20;;
15049;SDS011;7622;42.724;23.250;2023-04-15T08:58:08;0.80;;;0.80;;
15049;SDS011;7622;42.724;23.250;2023-04-15T09:00:36;4.30;;;1.10;;
15049;SDS011;7622;42.724;23.250;2023-04-15T09:03:03;0.93;;;0.70;;
15049;SDS011;7622;42.724;23.250;2023-04-15T09:05:31;2.20;;;1.00;;
15049;SDS011;7622;42.724;23.250;2023-04-15T09:07:58;2.73;;;0.80;;
15049;SDS011;7622;42.724;23.250;2023-04-15T09:10:27;1.87;;;0.93;;
15049;SDS011;7622;42.724;23.250;2023-04-15T09:12:53;4.73;;;1.40;;
15049;SDS011;7622;42.724;23.250;2023-04-15T09:15:20;1.77;;;1.10;;
15049;SDS011;7622;42.724;23.250;2023-04-15T09:17:49;4.50;;;1.30;;
15049;SDS011;7622;42.724;23.250;2023-04-15T09:20:16;4.03;;;1.70;;
15049;SDS011;7622;42.724;23.250;2023-04-15T09:22:44;1.00;;;0.90;;
15049;SDS011;7622;42.724;23.250;2023-04-15T09:27:59;1.83;;;1.10;;
15049;SDS011;7622;42.724;23.250;2023-04-15T09:30:27;1.90;;;1.10;;
15049;SDS011;7622;42.724;23.250;2023-04-15T09:32:55;4.73;;;1.07;;
15049;SDS011;7622;42.724;23.250;2023-04-15T09:35:23;1.33;;;0.80;;
15049;SDS011;7622;42.724;23.250;2023-04-15T09:37:51;2.13;;;1.00;;
15049;SDS011;7622;42.724;23.250;2023-04-15T09:40:31;0.70;;;0.70;;
15049;SDS011;7622;42.724;23.250;2023-04-15T09:42:58;2.40;;;1.43;;
15049;SDS011;7622;42.724;23.250;2023-04-15T09:45:27;2.03;;;0.60;;
15049;SDS011;7622;42.724;23.250;2023-04-15T09:47:54;2.17;;;1.03;;
15049;SDS011;7622;42.724;23.250;2023-04-15T09:50:22;0.70;;;0.70;;
15049;SDS011;7622;42.724;23.250;2023-04-15T09:52:52;1.57;;;0.90;;
15049;SDS011;7622;42.724;23.250;2023-04-15T09:55:19;55.63;;;27.50;;
15049;SDS011;7622;42.724;23.250;2023-04-15T09:57:48;0.97;;;0.90;;
15049;SDS011;7622;42.724;23.250;2023-04-15T10:00:15;1.50;;;0.90;;
15049;SDS011;7622;42.724;23.250;2023-04-15T10:02:42;0.93;;;0.77;;
15049;SDS011;7622;42.724;23.250;2023-04-15T10:05:09;1.27;;;1.17;;
15049;SDS011;7622;42.724;23.250;2023-04-15T10:07:37;0.83;;;0.70;;
15049;SDS011;7622;42.724;23.250;2023-04-15T10:10:06;4.37;;;0.77;;
15049;SDS011;7622;42.724;23.250;2023-04-15T10:12:33;1.70;;;1.07;;
15049;SDS011;7622;42.724;23.250;2023-04-15T10:15:04;2.47;;;1.13;;
15049;SDS011;7622;42.724;23.250;2023-04-15T10:17:34;0.80;;;0.80;;
15049;SDS011;7622;42.724;23.250;2023-04-15T10:20:03;1.60;;;0.90;;
15049;SDS011;7622;42.724;23.250;2023-04-15T10:22:31;1.53;;;0.80;;
15049;SDS011;7622;42.724;23.250;2023-04-15T10:24:58;1.67;;;0.90;;
15049;SDS011;7622;42.724;23.250;2023-04-15T10:27:25;3.07;;;0.90;;
15049;SDS011;7622;42.724;23.250;2023-04-15T10:29:53;1.03;;;0.87;;
15049;SDS011;7622;42.724;23.250;2023-04-15T10:32:22;1.07;;;0.87;;
15049;SDS011;7622;42.724;23.250;2023-04-15T10:34:50;1.97;;;1.17;;
15049;SDS011;7622;42.724;23.250;2023-04-15T10:37:21;1.73;;;0.70;;
15049;SDS011;7622;42.724;23.250;2023-04-15T10:39:48;1.30;;;0.70;;
15049;SDS011;7622;42.724;23.250;2023-04-15T10:42:15;5.47;;;3.33;;
15049;SDS011;7622;42.724;23.250;2023-04-15T10:44:43;2.93;;;1.53;;
15049;SDS011;7622;42.724;23.250;2023-04-15T10:47:11;1.93;;;1.17;;
15049;SDS011;7622;42.724;23.250;2023-04-15T10:49:45;1.17;;;0.90;;
15049;SDS011;7622;42.724;23.250;2023-04-15T10:52:15;1.87;;;1.10;;
15049;SDS011;7622;42.724;23.250;2023-04-15T10:54:43;1.00;;;0.90;;
15049;SDS011;7622;42.724;23.250;2023-04-15T10:57:14;1.93;;;0.90;;
15049;SDS011;7622;42.724;23.250;2023-04-15T10:59:59;2.63;;;1.10;;
15049;SDS011;7622;42.724;23.250;2023-04-15T11:02:37;3.33;;;1.30;;
15049;SDS011;7622;42.724;23.250;2023-04-15T11:05:10;1.97;;;1.10;;
15049;SDS011;7622;42.724;23.250;2023-04-15T11:07:45;1.10;;;1.00;;
15049;SDS011;7622;42.724;23.250;2023-04-15T11:13:19;1.50;;;1.27;;
15049;SDS011;7622;42.724;23.250;2023-04-15T11:15:48;1.87;;;1.00;;
15049;SDS011;7622;42.724;23.250;2023-04-15T11:18:16;2.87;;;1.00;;
15049;SDS011;7622;42.724;23.250;2023-04-15T11:20:46;1.93;;;1.40;;
15049;SDS011;7622;42.724;23.250;2023-04-15T11:23:14;1.87;;;1.17;;
15049;SDS011;7622;42.724;23.250;2023-04-15T11:25:42;1.87;;;1.30;;
15049;SDS011;7622;42.724;23.250;2023-04-15T11:28:10;1.33;;;1.10;;
15049;SDS011;7622;42.724;23.250;2023-04-15T11:30:38;1.60;;;1.10;;
15049;SDS011;7622;42.724;23.250;2023-04-15T11:33:05;1.20;;;0.97;;
15049;SDS011;7622;42.724;23.250;2023-04-15T11:35:36;0.97;;;0.90;;
15049;SDS011;7622;42.724;23.250;2023-04-15T11:38:07;1.30;;;1.07;;
15049;SDS011;7622;42.724;23.250;2023-04-15T11:40:36;3.43;;;1.23;;
15049;SDS011;7622;42.724;23.250;2023-04-15T11:43:04;1.47;;;1.37;;
15049;SDS011;7622;42.724;23.250;2023-04-15T11:45:32;3.13;;;1.30;;
15049;SDS011;7622;42.724;23.250;2023-04-15T11:48:09;1.00;;;0.90;;
15049;SDS011;7622;42.724;23.250;2023-04-15T11:50:38;2.83;;;1.30;;
15049;SDS011;7622;42.724;23.250;2023-04-15T11:53:07;1.30;;;1.20;;
15049;SDS011;7622;42.724;23.250;2023-04-15T11:55:41;1.77;;;0.90;;
15049;SDS011;7622;42.724;23.250;2023-04-15T11:58:11;3.33;;;1.43;;
15049;SDS011;7622;42.724;23.250;2023-04-15T12:00:40;1.83;;;1.00;;
15049;SDS011;7622;42.724;23.250;2023-04-15T12:03:22;1.00;;;1.00;;
15049;SDS011;7622;42.724;23.250;2023-04-15T12:06:09;1.10;;;1.00;;
15049;SDS011;7622;42.724;23.250;2023-04-15T12:11:38;1.50;;;1.07;;
15049;SDS011;7622;42.724;23.250;2023-04-15T12:14:15;1.00;;;0.93;;
15049;SDS011;7622;42.724;23.250;2023-04-15T12:16:46;1.57;;;0.90;;
15049;SDS011;7622;42.724;23.250;2023-04-15T12:19:14;8.13;;;1.57;;
15049;SDS011;7622;42.724;23.250;2023-04-15T12:21:43;1.23;;;0.90;;
15049;SDS011;7622;42.724;23.250;2023-04-15T12:24:13;1.27;;;0.90;;
15049;SDS011;7622;42.724;23.250;2023-04-15T12:26:44;1.87;;;0.87;;
15049;SDS011;7622;42.724;23.250;2023-04-15T12:29:13;2.50;;;0.80;;
15049;SDS011;7622;42.724;23.250;2023-04-15T12:31:48;1.40;;;0.60;;
15049;SDS011;7622;42.724;23.250;2023-04-15T12:34:16;1.13;;;0.90;;
15049;SDS011;7622;42.724;23.250;2023-04-15T12:36:45;3.17;;;1.17;;
15049;SDS011;7622;42.724;23.250;2023-04-15T12:39:13;1.20;;;1.10;;
15049;SDS011;7622;42.724;23.250;2023-04-15T12:41:40;1.53;;;1.07;;
15049;SDS011;7622;42.724;23.250;2023-04-15T12:44:06;0.87;;;0.80;;
15049;SDS011;7622;42.724;23.250;2023-04-15T12:46:33;1.90;;;0.60;;
15049;SDS011;7622;42.724;23.250;2023-04-15T12:49:00;0.80;;;0.80;;
15049;SDS011;7622;42.724;23.250;2023-04-15T12:51:27;2.27;;;2.07;;
15049;SDS011;7622;42.724;23.250;2023-04-15T12:53:54;4.00;;;3.50;;
15049;SDS011;7622;42.724;23.250;2023-04-15T12:56:22;6.80;;;5.70;;
15049;SDS011;7622;42.724;23.250;2023-04-15T12:58:49;1.27;;;0.90;;
15049;SDS011;7622;42.724;23.250;2023-04-15T13:01:15;1.17;;;0.83;;
15049;SDS011;7622;42.724;23.250;2023-04-15T13:03:42;2.57;;;1.00;;
15049;SDS011;7622;42.724;23.250;2023-04-15T13:06:09;1.63;;;0.97;;
15049;SDS011;7622;42.724;23.250;2023-04-15T13:08:36;1.60;;;0.80;;
15049;SDS011;7622;42.724;23.250;2023-04-15T13:11:03;3.30;;;0.93;;
15049;SDS011;7622;42.724;23.250;2023-04-15T13:13:31;0.63;;;0.63;;
15049;SDS011;7622;42.724;23.250;2023-04-15T13:15:58;2.63;;;1.20;;
15049;SDS011;7622;42.724;23.250;2023-04-15T13:18:24;3.27;;;0.80;;
15049;SDS011;7622;42.724;23.250;2023-04-15T13:20:51;1.27;;;0.93;;
15049;SDS011;7622;42.724;23.250;2023-04-15T13:23:20;1.23;;;1.07;;
15049;SDS011;7622;42.724;23.250;2023-04-15T13:25:47;1.53;;;0.80;;
15049;SDS011;7622;42.724;23.250;2023-04-15T13:28:13;2.53;;;0.90;;
15049;SDS011;7622;42.724;23.250;2023-04-15T13:30:42;1.63;;;0.73;;
15049;SDS011;7622;42.724;23.250;2023-04-15T13:33:10;0.83;;;0.83;;
15049;SDS011;7622;42.724;23.250;2023-04-15T13:35:37;1.67;;;0.90;;
15049;SDS011;7622;42.724;23.250;2023-04-15T13:38:04;3.33;;;0.87;;
15049;SDS011;7622;42.724;23.250;2023-04-15T13:40:31;0.90;;;0.67;;
15049;SDS011;7622;42.724;23.250;2023-04-15T13:42:58;0.80;;;0.80;;
15049;SDS011;7622;42.724;23.250;2023-04-15T13:45:25;0.90;;;0.90;;
15049;SDS011;7622;42.724;23.250;2023-04-15T13:47:54;1.20;;;0.63;;
15049;SDS011;7622;42.724;23.250;2023-04-15T13:50:21;0.53;;;0.50;;
15049;SDS011;7622;42.724;23.250;2023-04-15T13:52:47;2.97;;;0.90;;
15049;SDS011;7622;42.724;23.250;2023-04-15T13:55:14;0.80;;;0.70;;
15049;SDS011;7622;42.724;23.250;2023-04-15T13:57:41;0.50;;;0.50;;
15049;SDS011;7622;42.724;23.250;2023-04-15T14:00:08;3.30;;;2.47;;
15049;SDS011;7622;42.724;23.250;2023-04-15T14:02:36;1.30;;;1.20;;
15049;SDS011;7622;42.724;23.250;2023-04-15T14:05:04;1.00;;;0.83;;
15049;SDS011;7622;42.724;23.250;2023-04-15T14:07:32;2.30;;;1.20;;
15049;SDS011;7622;42.724;23.250;2023-04-15T14:10:02;3.17;;;1.10;;
15049;SDS011;7622;42.724;23.250;2023-04-15T14:12:33;1.43;;;0.73;;
15049;SDS011;7622;42.724;23.250;2023-04-15T14:15:00;1.90;;;0.80;;
15049;SDS011;7622;42.724;23.250;2023-04-15T14:17:27;0.80;;;0.67;;
15049;SDS011;7622;42.724;23.250;2023-04-15T14:19:54;1.10;;;0.90;;
15049;SDS011;7622;42.724;23.250;2023-04-15T14:22:22;0.60;;;0.60;;
15049;SDS011;7622;42.724;23.250;2023-04-15T14:24:49;1.50;;;0.90;;
15049;SDS011;7622;42.724;23.250;2023-04-15T14:27:17;4.13;;;2.97;;
15049;SDS011;7622;42.724;23.250;2023-04-15T14:29:44;3.90;;;3.50;;
15049;SDS011;7622;42.724;23.250;2023-04-15T14:32:11;22.13;;;16.23;;
15049;SDS011;7622;42.724;23.250;2023-04-15T14:34:38;1.03;;;0.70;;
15049;SDS011;7622;42.724;23.250;2023-04-15T14:37:04;1.10;;;0.70;;
15049;SDS011;7622;42.724;23.250;2023-04-15T14:39:36;1.17;;;1.13;;
15049;SDS011;7622;42.724;23.250;2023-04-15T14:42:02;1.40;;;0.80;;
15049;SDS011;7622;42.724;23.250;2023-04-15T14:44:29;1.80;;;0.93;;
15049;SDS011;7622;42.724;23.250;2023-04-15T14:46:56;0.93;;;0.80;;
15049;SDS011;7622;42.724;23.250;2023-04-15T14:49:23;0.77;;;0.77;;
15049;SDS011;7622;42.724;23.250;2023-04-15T14:51:50;0.90;;;0.70;;
15049;SDS011;7622;42.724;23.250;2023-04-15T14:54:16;0.73;;;0.70;;
15049;SDS011;7622;42.724;23.250;2023-04-15T14:56:45;0.43;;;0.43;;
15049;SDS011;7622;42.724;23.250;2023-04-15T14:59:11;2.37;;;0.87;;